createdAt,value
2024-04-01T00:01:18.359Z,98575.00
2024-04-01T00:03:59.064Z,98580.60
2024-04-01T00:06:31.530Z,98586.00
2024-04-01T00:09:03.950Z,98578.80
2024-04-01T00:11:36.256Z,98583.80
2024-04-01T00:14:10.707Z,98586.80
2024-04-01T00:16:44.392Z,98588.40
2024-04-01T00:19:16.721Z,98588.20
2024-04-01T00:21:49.023Z,98582.20
2024-04-01T00:24:21.897Z,98586.60
2024-04-01T00:26:54.187Z,98584.60
2024-04-01T00:29:26.458Z,98583.20
2024-04-01T00:31:58.683Z,98579.40
2024-04-01T00:34:33.456Z,98583.80
2024-04-01T00:37:06.327Z,98577.60
2024-04-01T00:39:38.685Z,98583.20
2024-04-01T00:42:11.031Z,98583.80
2024-04-01T00:44:45.777Z,98584.80
2024-04-01T00:47:18.189Z,98590.60
2024-04-01T00:49:50.759Z,98588.80
2024-04-01T00:52:23.447Z,98581.20
2024-04-01T00:54:56.568Z,98581.40
2024-04-01T00:57:29.287Z,98579.80
2024-04-01T01:00:01.801Z,98579.80
2024-04-01T01:02:34.375Z,98577.00
2024-04-01T01:05:08.267Z,98573.20
2024-04-01T01:07:40.964Z,98564.20
2024-04-01T01:10:13.811Z,98563.40
2024-04-01T01:12:46.421Z,98558.00
2024-04-01T01:15:21.334Z,98557.20
2024-04-01T01:17:53.780Z,98552.60
2024-04-01T01:20:26.681Z,98556.20
2024-04-01T01:22:58.986Z,98551.20
2024-04-01T01:25:31.406Z,98544.80
2024-04-01T01:28:03.692Z,98536.80
2024-04-01T01:30:36.834Z,98536.40
2024-04-01T01:33:10.949Z,98532.20
2024-04-01T01:35:45.800Z,98528.20
2024-04-01T01:38:19.574Z,98524.60
2024-04-01T01:40:53.526Z,98515.40
2024-04-01T01:43:25.867Z,98507.60
2024-04-01T01:45:58.199Z,98499.40
2024-04-01T01:48:31.059Z,98491.60
2024-04-01T01:51:03.422Z,98487.20
2024-04-01T01:53:35.997Z,98482.80
2024-04-01T01:56:09.160Z,98479.00
2024-04-01T01:58:41.378Z,98478.00
2024-04-01T02:01:13.609Z,98475.20
2024-04-01T02:03:46.510Z,98473.40
2024-04-01T02:06:19.371Z,98476.40
2024-04-01T02:08:51.796Z,98484.00
2024-04-01T02:11:26.753Z,98487.60
2024-04-01T02:13:58.988Z,98488.40
2024-04-01T02:16:31.324Z,98484.60
2024-04-01T02:19:03.597Z,98484.00
2024-04-01T02:21:35.942Z,98487.60
2024-04-01T02:24:08.847Z,98489.00
2024-04-01T02:26:41.224Z,98491.40
2024-04-01T02:29:13.506Z,98487.20
2024-04-01T02:31:45.984Z,98481.60
2024-04-01T02:34:18.460Z,98476.40
2024-04-01T02:36:50.645Z,98472.40
2024-04-01T02:39:22.914Z,98473.20
2024-04-01T02:41:55.766Z,98475.20
2024-04-01T02:44:28.137Z,98476.60
2024-04-01T02:47:00.393Z,98478.40
2024-04-01T02:49:32.744Z,98472.00
2024-04-01T02:52:05.686Z,98472.20
2024-04-01T02:54:38.071Z,98462.80
2024-04-01T02:57:12.831Z,98461.20
2024-04-01T02:59:48.183Z,98452.00
2024-04-01T03:02:20.494Z,98447.60
2024-04-01T03:04:54.912Z,98441.20
2024-04-01T03:07:27.373Z,98438.40
2024-04-01T03:10:00.787Z,98434.80
2024-04-01T03:12:33.171Z,98431.80
2024-04-01T03:15:06.114Z,98423.00
2024-04-01T03:17:41.091Z,98432.60
2024-04-01T03:20:14.815Z,98430.80
2024-04-01T03:22:47.067Z,98421.00
2024-04-01T03:25:19.923Z,98428.40
2024-04-01T03:27:52.301Z,98434.40
2024-04-01T03:30:24.711Z,98435.80
2024-04-01T03:32:59.644Z,98428.80
2024-04-01T03:35:31.937Z,98439.20
2024-04-01T03:38:04.242Z,98439.60
2024-04-01T03:40:41.201Z,98441.20
2024-04-01T03:43:13.650Z,98455.20
2024-04-01T03:45:46.207Z,98456.40
2024-04-01T03:48:18.492Z,98459.40
2024-04-01T03:50:51.483Z,98461.20
2024-04-01T03:53:23.967Z,98446.00
2024-04-01T03:55:56.275Z,98443.40
2024-04-01T03:58:28.538Z,98446.20
2024-04-01T04:01:00.785Z,98454.00
2024-04-01T04:03:33.126Z,98456.60
2024-04-01T04:06:05.972Z,98462.80
2024-04-01T04:08:38.535Z,98460.00
2024-04-01T04:11:12.569Z,98452.20
2024-04-01T04:13:47.728Z,98459.80
2024-04-01T04:16:20.039Z,98473.00
2024-04-01T04:18:54.759Z,98479.40
2024-04-01T04:21:27.164Z,98479.60
2024-04-01T04:23:59.404Z,98477.40
2024-04-01T04:26:32.904Z,98472.80
2024-04-01T04:29:05.378Z,98444.60
2024-04-01T04:31:37.946Z,98433.60
2024-04-01T04:34:11.794Z,98431.80
2024-04-01T04:36:44.110Z,98437.40
2024-04-01T04:39:25.332Z,98437.20
2024-04-01T04:41:58.884Z,98429.80
2024-04-01T04:44:31.668Z,98425.40
2024-04-01T04:47:03.980Z,98418.20
2024-04-01T04:49:36.252Z,98406.60
2024-04-01T04:52:09.177Z,98407.60
2024-04-01T04:54:42.454Z,98401.00
2024-04-01T04:57:15.201Z,98399.00
2024-04-01T04:59:49.324Z,98393.80
2024-04-01T05:02:21.711Z,98397.00
2024-04-01T05:04:53.984Z,98390.40
2024-04-01T05:07:26.300Z,98376.60
2024-04-01T05:09:58.518Z,98375.60
2024-04-01T05:12:31.351Z,98379.00
2024-04-01T05:15:06.890Z,98382.60
2024-04-01T05:17:39.478Z,98387.40
2024-04-01T05:20:15.074Z,98394.00
2024-04-01T05:22:49.647Z,98400.20
2024-04-01T05:25:25.578Z,98393.40
2024-04-01T05:28:00.176Z,98381.20
2024-04-01T05:30:32.560Z,98392.40
2024-04-01T05:33:05.075Z,98411.40
2024-04-01T05:35:38.630Z,98413.60
2024-04-01T05:38:10.993Z,98415.40
2024-04-01T05:40:43.430Z,98419.80
2024-04-01T05:43:15.849Z,98410.20
2024-04-01T05:45:50.969Z,98399.00
2024-04-01T05:48:23.401Z,98400.80
2024-04-01T05:50:56.036Z,98409.20
2024-04-01T05:53:28.357Z,98411.40
2024-04-01T05:56:04.305Z,98400.60
2024-04-01T05:58:36.931Z,98388.00
2024-04-01T06:01:09.373Z,98386.40
2024-04-01T06:03:41.681Z,98382.20
2024-04-01T06:06:14.173Z,98372.80
2024-04-01T06:08:47.034Z,98362.20
2024-04-01T06:11:19.409Z,98334.20
2024-04-01T06:13:51.809Z,98310.20
2024-04-01T06:16:24.129Z,98305.00
2024-04-01T06:18:56.408Z,98329.60
2024-04-01T06:21:32.486Z,98349.80
2024-04-01T06:24:05.226Z,98364.60
2024-04-01T06:26:38.055Z,98369.60
2024-04-01T06:29:10.369Z,98360.40
2024-04-01T06:31:43.272Z,98367.00
2024-04-01T06:34:15.612Z,98356.60
2024-04-01T06:36:48.112Z,98344.00
2024-04-01T06:39:21.200Z,98342.20
2024-04-01T06:41:56.183Z,98349.60
2024-04-01T06:44:28.549Z,98353.80
2024-04-01T06:47:00.973Z,98360.40
2024-04-01T06:49:33.368Z,98379.20
2024-04-01T06:52:06.391Z,98386.00
2024-04-01T06:54:41.312Z,98386.00
2024-04-01T06:57:16.860Z,98373.40
2024-04-01T06:59:49.267Z,98386.00
2024-04-01T07:02:21.656Z,98389.40
2024-04-01T07:04:53.991Z,98390.40
2024-04-01T07:07:26.359Z,98391.60
2024-04-01T07:09:59.034Z,98405.40
2024-04-01T07:12:32.253Z,98425.60
2024-04-01T07:15:04.682Z,98423.00
2024-04-01T07:17:37.001Z,98421.00
2024-04-01T07:20:10.534Z,98442.20
2024-04-01T07:22:43.051Z,98445.20
2024-04-01T07:25:15.380Z,98447.80
2024-04-01T07:27:48.115Z,98446.00
2024-04-01T07:30:20.540Z,98432.00
2024-04-01T07:32:54.999Z,98425.60
2024-04-01T07:35:27.519Z,98421.80
2024-04-01T07:37:59.899Z,98419.20
2024-04-01T07:40:32.451Z,98419.40
2024-04-01T07:43:04.818Z,98416.20
2024-04-01T07:45:37.075Z,98407.20
2024-04-01T07:48:13.914Z,98398.40
2024-04-01T07:50:46.146Z,98385.80
2024-04-01T07:53:20.270Z,98384.80
2024-04-01T07:55:53.608Z,98387.20
2024-04-01T07:58:26.838Z,98394.00
2024-04-01T08:01:00.313Z,98377.00
2024-04-01T08:03:32.795Z,98364.40
2024-04-01T08:06:05.173Z,98356.40
2024-04-01T08:08:37.391Z,98340.40
2024-04-01T08:11:12.265Z,98339.40
2024-04-01T08:13:44.541Z,98343.00
2024-04-01T08:16:16.953Z,98356.60
2024-04-01T08:18:49.186Z,98361.20
2024-04-01T08:21:21.920Z,98353.40
2024-04-01T08:23:54.442Z,98348.00
2024-04-01T08:26:26.870Z,98340.40
2024-04-01T08:28:59.187Z,98336.60
2024-04-01T08:31:31.581Z,98323.40
2024-04-01T08:34:06.507Z,98315.20
2024-04-01T08:36:38.843Z,98288.80
2024-04-01T08:39:13.388Z,98266.20
2024-04-01T08:41:55.946Z,98270.20
2024-04-01T08:44:30.792Z,98267.40
2024-04-01T08:47:05.170Z,98265.20
2024-04-01T08:49:47.217Z,98254.60
2024-04-01T08:52:24.139Z,98246.40
2024-04-01T08:54:57.000Z,98247.80
2024-04-01T08:57:30.040Z,98256.60
2024-04-01T09:00:04.025Z,98280.00
2024-04-01T09:02:36.346Z,98292.20
2024-04-01T09:05:09.656Z,98292.20
2024-04-01T09:07:44.307Z,98309.80
2024-04-01T09:10:20.887Z,98307.40
2024-04-01T09:12:56.367Z,98311.80
2024-04-01T09:15:29.292Z,98306.60
2024-04-01T09:18:05.388Z,98299.80
2024-04-01T09:20:38.016Z,98302.60
2024-04-01T09:23:11.255Z,98309.60
2024-04-01T09:25:43.769Z,98310.20
2024-04-01T09:28:17.074Z,98306.20
2024-04-01T09:30:49.610Z,98299.80
2024-04-01T09:33:22.076Z,98290.60
2024-04-01T09:35:55.400Z,98290.80
2024-04-01T09:38:27.699Z,98280.40
2024-04-01T09:41:02.051Z,98272.20
2024-04-01T09:43:45.845Z,98266.80
2024-04-01T09:46:24.652Z,98263.20
2024-04-01T09:48:59.888Z,98265.20
2024-04-01T09:51:32.491Z,98248.40
2024-04-01T09:54:04.820Z,98245.20
2024-04-01T09:57:36.388Z,98235.00
2024-04-01T10:00:35.556Z,98232.00
2024-04-01T10:04:04.725Z,98234.20
2024-04-01T10:07:31.825Z,98228.00
2024-04-01T10:10:33.541Z,98219.40
2024-04-01T10:13:41.846Z,98210.20
2024-04-01T10:16:30.666Z,98197.40
2024-04-01T10:19:52.107Z,98200.20
2024-04-01T10:23:24.274Z,98185.40
2024-04-01T10:26:46.054Z,98190.00
2024-04-01T10:30:07.957Z,98183.00
2024-04-01T10:33:42.964Z,98183.80
2024-04-01T10:36:31.334Z,98181.20
2024-04-01T10:39:51.957Z,98186.80
2024-04-01T10:43:06.621Z,98181.80
2024-04-01T10:46:36.235Z,98166.80
2024-04-01T10:49:30.687Z,98182.60
2024-04-01T10:52:46.770Z,98195.20
2024-04-01T10:55:52.294Z,98192.20
2024-04-01T10:58:51.530Z,98204.40
2024-04-01T11:02:04.630Z,98197.60
2024-04-01T11:05:02.806Z,98191.80
2024-04-01T11:07:56.076Z,98188.40
2024-04-01T11:10:35.540Z,98174.20
2024-04-01T11:13:16.276Z,98170.40
2024-04-01T11:15:52.326Z,98163.40
2024-04-01T11:18:47.797Z,98162.40
2024-04-01T11:21:32.861Z,98165.80
2024-04-01T11:24:23.100Z,98163.20
2024-04-01T11:27:32.235Z,98155.40
2024-04-01T11:30:26.764Z,98157.40
2024-04-01T11:33:08.921Z,98159.00
2024-04-01T11:35:54.918Z,98162.00
2024-04-01T11:38:54.321Z,98167.20
2024-04-01T11:41:29.463Z,98167.60
2024-04-01T11:44:02.670Z,98165.80
2024-04-01T11:46:38.435Z,98157.20
2024-04-01T11:49:10.805Z,98150.80
2024-04-01T11:51:43.476Z,98149.40
2024-04-01T11:54:29.725Z,98141.80
2024-04-01T11:57:02.007Z,98138.40
2024-04-01T11:59:37.467Z,98131.20
2024-04-01T12:02:19.672Z,98133.00
2024-04-01T12:05:02.035Z,98134.80
2024-04-01T12:07:35.485Z,98140.00
2024-04-01T12:10:15.308Z,98135.60
2024-04-01T12:12:49.276Z,98132.80
2024-04-01T12:15:26.548Z,98125.40
2024-04-01T12:17:58.868Z,98112.40
2024-04-01T12:20:39.408Z,98095.80
2024-04-01T12:23:13.282Z,98101.60
2024-04-01T12:25:45.641Z,98093.00
2024-04-01T12:28:19.240Z,98099.80
2024-04-01T12:30:59.697Z,98096.40
2024-04-01T12:33:37.932Z,98102.60
2024-04-01T12:36:14.800Z,98111.60
2024-04-01T12:38:51.226Z,98105.80
2024-04-01T12:41:28.721Z,98098.80
2024-04-01T12:44:02.023Z,98103.00
2024-04-01T12:46:36.750Z,98104.40
2024-04-01T12:49:18.426Z,98106.00
2024-04-01T12:51:51.946Z,98115.20
2024-04-01T12:54:55.808Z,98122.00
2024-04-01T12:58:05.624Z,98118.20
2024-04-01T13:00:45.401Z,98113.80
2024-04-01T13:03:50.490Z,98114.60
2024-04-01T13:06:49.439Z,98117.80
2024-04-01T13:09:29.085Z,98121.60
2024-04-01T13:12:15.917Z,98122.00
2024-04-01T13:15:12.942Z,98128.80
2024-04-01T13:18:12.051Z,98124.40
2024-04-01T13:21:00.029Z,98126.00
2024-04-01T13:23:36.837Z,98125.20
2024-04-01T13:26:18.014Z,98120.40
2024-04-01T13:28:58.431Z,98117.60
2024-04-01T13:31:40.580Z,98111.80
2024-04-01T13:34:30.617Z,98114.60
2024-04-01T13:37:13.489Z,98115.20
2024-04-01T13:40:12.066Z,98111.40
2024-04-01T13:43:05.806Z,98115.60
2024-04-01T13:45:53.727Z,98114.80
2024-04-01T13:48:52.637Z,98098.00
2024-04-01T13:51:38.308Z,98098.20
2024-04-01T13:54:23.279Z,98106.40
2024-04-01T13:57:32.169Z,98095.20
2024-04-01T14:00:14.575Z,98087.40
2024-04-01T14:03:02.203Z,98092.20
2024-04-01T14:06:11.017Z,98093.60
2024-04-01T14:08:51.671Z,98091.00
2024-04-01T14:11:40.379Z,98080.40
2024-04-01T14:14:23.926Z,98080.20
2024-04-01T14:17:04.604Z,98080.40
2024-04-01T14:19:51.355Z,98083.40
2024-04-01T14:22:26.633Z,98076.60
2024-04-01T14:25:04.352Z,98071.20
2024-04-01T14:27:36.860Z,98074.80
2024-04-01T14:30:11.721Z,98076.40
2024-04-01T14:32:45.406Z,98072.80
2024-04-01T14:35:18.143Z,98072.60
2024-04-01T14:37:54.177Z,98072.60
2024-04-01T14:40:26.987Z,98067.20
2024-04-01T14:42:59.779Z,98074.20
2024-04-01T14:45:33.390Z,98073.20
2024-04-01T14:48:06.549Z,98067.40
2024-04-01T14:50:39.221Z,98070.20
2024-04-01T14:53:12.784Z,98070.20
2024-04-01T14:55:46.173Z,98071.00
2024-04-01T14:58:20.837Z,98076.00
2024-04-01T15:00:56.184Z,98083.00
2024-04-01T15:03:31.179Z,98090.00
2024-04-01T15:06:04.256Z,98093.80
2024-04-01T15:08:39.964Z,98094.00
2024-04-01T15:11:12.433Z,98095.20
2024-04-01T15:13:47.794Z,98099.20
2024-04-01T15:16:20.487Z,98096.80
2024-04-01T15:18:54.081Z,98103.20
2024-04-01T15:21:28.194Z,98110.20
2024-04-01T15:24:00.980Z,98109.40
2024-04-01T15:26:34.590Z,98112.80
2024-04-01T15:29:07.118Z,98116.00
2024-04-01T15:31:40.705Z,98123.80
2024-04-01T15:34:16.014Z,98134.80
2024-04-01T15:36:49.012Z,98134.40
2024-04-01T15:39:23.984Z,98140.40
2024-04-01T15:41:57.021Z,98150.20
2024-04-01T15:44:35.785Z,98151.80
2024-04-01T15:47:09.204Z,98153.00
2024-04-01T15:49:44.177Z,98154.00
2024-04-01T15:52:18.712Z,98148.80
2024-04-01T15:54:51.384Z,98152.20
2024-04-01T15:57:25.348Z,98153.40
2024-04-01T16:00:01.810Z,98153.60
2024-04-01T16:02:45.465Z,98153.00
2024-04-01T16:05:19.702Z,98152.20
2024-04-01T16:07:52.883Z,98159.40
2024-04-01T16:10:26.468Z,98171.60
2024-04-01T16:13:02.028Z,98175.60
2024-04-01T16:15:38.208Z,98178.80
2024-04-01T16:18:15.310Z,98173.60
2024-04-01T16:20:48.998Z,98175.00
2024-04-01T16:23:27.152Z,98171.40
2024-04-01T16:26:01.844Z,98170.20
2024-04-01T16:28:35.141Z,98174.20
2024-04-01T16:31:10.237Z,98210.60
2024-04-01T16:33:42.765Z,98225.00
2024-04-01T16:36:31.568Z,98242.40
2024-04-01T16:39:10.827Z,98251.40
2024-04-01T16:41:44.942Z,98269.00
2024-04-01T16:44:17.345Z,98302.20
2024-04-01T16:46:49.682Z,98350.20
2024-04-01T16:49:22.380Z,98409.80
2024-04-01T16:51:54.869Z,98421.40
2024-04-01T16:54:27.775Z,98392.20
2024-04-01T16:57:00.152Z,98359.40
2024-04-01T16:59:35.898Z,98334.00
2024-04-01T17:02:11.563Z,98324.40
2024-04-01T17:04:45.405Z,98367.20
2024-04-01T17:07:17.846Z,98376.20
2024-04-01T17:09:52.387Z,98388.00
2024-04-01T17:12:24.707Z,98398.80
2024-04-01T17:14:57.197Z,98412.20
2024-04-01T17:17:29.827Z,98416.20
2024-04-01T17:20:06.099Z,98418.40
2024-04-01T17:22:41.064Z,98421.60
2024-04-01T17:25:19.027Z,98421.60
2024-04-01T17:27:52.664Z,98408.00
2024-04-01T17:30:25.277Z,98408.60
2024-04-01T17:32:58.039Z,98417.80
2024-04-01T17:35:30.923Z,98415.60
2024-04-01T17:38:05.086Z,98433.60
2024-04-01T17:40:38.664Z,98436.60
2024-04-01T17:43:11.150Z,98442.00
2024-04-01T17:45:43.913Z,98448.20
2024-04-01T17:48:16.319Z,98438.20
2024-04-01T17:50:49.087Z,98439.20
2024-04-01T17:53:23.169Z,98435.60
2024-04-01T17:55:57.623Z,98434.60
2024-04-01T17:58:31.086Z,98437.60
2024-04-01T18:01:04.120Z,98441.00
2024-04-01T18:03:36.643Z,98445.80
2024-04-01T18:06:10.636Z,98448.40
2024-04-01T18:08:43.101Z,98454.40
2024-04-01T18:11:19.688Z,98455.00
2024-04-01T18:13:52.152Z,98462.80
2024-04-01T18:16:24.895Z,98451.40
2024-04-01T18:18:57.676Z,98459.00
2024-04-01T18:21:30.324Z,98465.60
2024-04-01T18:24:05.657Z,98468.40
2024-04-01T18:26:38.341Z,98470.80
2024-04-01T18:29:10.873Z,98471.80
2024-04-01T18:31:47.122Z,98471.00
2024-04-01T18:34:25.531Z,98467.80
2024-04-01T18:37:15.510Z,98462.80
2024-04-01T18:39:56.864Z,98466.60
2024-04-01T18:42:35.887Z,98471.20
2024-04-01T18:45:10.116Z,98475.00
2024-04-01T18:47:45.192Z,98475.40
2024-04-01T18:50:29.994Z,98477.20
2024-04-01T18:53:03.995Z,98466.80
2024-04-01T18:55:36.748Z,98462.80
2024-04-01T18:58:11.686Z,98475.60
2024-04-01T19:00:44.075Z,98484.60
2024-04-01T19:03:16.442Z,98479.40
2024-04-01T19:05:48.688Z,98468.60
2024-04-01T19:08:20.953Z,98470.20
2024-04-01T19:10:53.262Z,98464.20
2024-04-01T19:13:26.375Z,98466.20
2024-04-01T19:15:58.590Z,98470.80
2024-04-01T19:18:30.897Z,98477.80
2024-04-01T19:21:03.236Z,98486.60
2024-04-01T19:23:35.492Z,98488.40
2024-04-01T19:26:07.895Z,98488.80
2024-04-01T19:28:41.888Z,98488.20
2024-04-01T19:31:14.904Z,98484.40
2024-04-01T19:33:51.442Z,98481.80
2024-04-01T19:36:23.978Z,98493.80
2024-04-01T19:38:57.396Z,98506.40
2024-04-01T19:41:29.920Z,98525.40
2024-04-01T19:44:02.320Z,98527.60
2024-04-01T19:46:35.205Z,98525.80
2024-04-01T19:49:08.133Z,98526.80
2024-04-01T19:51:40.887Z,98514.20
2024-04-01T19:54:16.216Z,98497.40
2024-04-01T19:56:49.055Z,98488.80
2024-04-01T19:59:24.193Z,98497.60
2024-04-01T20:01:57.677Z,98495.00
2024-04-01T20:04:30.045Z,98495.00
2024-04-01T20:07:03.381Z,98507.40
2024-04-01T20:09:36.078Z,98516.00
2024-04-01T20:12:11.576Z,98505.00
2024-04-01T20:14:45.042Z,98507.40
2024-04-01T20:17:18.513Z,98513.80
2024-04-01T20:19:51.067Z,98512.00
2024-04-01T20:22:25.702Z,98514.60
2024-04-01T20:24:58.170Z,98516.80
2024-04-01T20:27:33.022Z,98517.80
2024-04-01T20:30:07.554Z,98508.60
2024-04-01T20:32:40.291Z,98496.00
2024-04-01T20:35:12.802Z,98496.60
2024-04-01T20:37:45.610Z,98498.40
2024-04-01T20:40:20.174Z,98497.20
2024-04-01T20:42:52.549Z,98495.20
2024-04-01T20:45:29.391Z,98499.60
2024-04-01T20:48:02.264Z,98504.40
2024-04-01T20:50:35.142Z,98507.80
2024-04-01T20:53:27.947Z,98510.20
2024-04-01T20:56:02.084Z,98517.40
2024-04-01T20:58:35.181Z,98531.60
2024-04-01T21:01:09.132Z,98546.40
2024-04-01T21:03:41.825Z,98544.20
2024-04-01T21:06:20.470Z,98546.60
2024-04-01T21:08:53.886Z,98547.20
2024-04-01T21:11:26.322Z,98555.40
2024-04-01T21:13:58.602Z,98559.60
2024-04-01T21:16:30.909Z,98568.00
2024-04-01T21:19:03.189Z,98570.00
2024-04-01T21:21:35.497Z,98580.80
2024-04-01T21:24:09.417Z,98583.40
2024-04-01T21:26:41.727Z,98585.00
2024-04-01T21:29:14.061Z,98587.40
2024-04-01T21:31:46.335Z,98599.60
2024-04-01T21:34:18.732Z,98605.40
2024-04-01T21:36:51.024Z,98619.60
2024-04-01T21:39:23.242Z,98627.60
2024-04-01T21:41:55.583Z,98630.20
2024-04-01T21:44:27.814Z,98630.20
2024-04-01T21:47:00.222Z,98626.20
2024-04-01T21:49:32.635Z,98632.00
2024-04-01T21:52:05.111Z,98641.40
2024-04-01T21:54:37.435Z,98649.60
2024-04-01T21:57:09.893Z,98647.80
2024-04-01T21:59:42.207Z,98629.00
2024-04-01T22:02:14.789Z,98641.40
2024-04-01T22:04:47.106Z,98630.00
2024-04-01T22:07:20.789Z,98628.40
2024-04-01T22:09:53.264Z,98615.20
2024-04-01T22:12:25.627Z,98603.40
2024-04-01T22:14:57.980Z,98596.80
2024-04-01T22:17:30.314Z,98589.80
2024-04-01T22:20:03.118Z,98600.40
2024-04-01T22:22:36.347Z,98603.60
2024-04-01T22:25:11.016Z,98602.80
2024-04-01T22:27:43.418Z,98601.20
2024-04-01T22:30:16.829Z,98611.40
2024-04-01T22:32:49.418Z,98604.60
2024-04-01T22:35:21.884Z,98602.80
2024-04-01T22:37:54.305Z,98594.20
2024-04-01T22:40:26.704Z,98597.00
2024-04-01T22:42:59.119Z,98598.00
2024-04-01T22:45:31.480Z,98595.00
2024-04-01T22:48:04.145Z,98601.60
2024-04-01T22:50:36.685Z,98599.80
2024-04-01T22:53:10.133Z,98595.20
2024-04-01T22:55:42.473Z,98587.40
2024-04-01T22:58:14.821Z,98597.00
2024-04-01T23:00:47.124Z,98604.40
2024-04-01T23:03:19.531Z,98608.80
2024-04-01T23:05:52.051Z,98618.20
2024-04-01T23:08:24.481Z,98618.20
2024-04-01T23:10:56.822Z,98614.20
2024-04-01T23:13:29.146Z,98611.00
2024-04-01T23:16:01.509Z,98606.80
2024-04-01T23:18:33.822Z,98608.00
2024-04-01T23:21:14.501Z,98611.20
2024-04-01T23:23:47.187Z,98608.20
2024-04-01T23:26:19.526Z,98611.80
2024-04-01T23:28:54.591Z,98608.40
2024-04-01T23:31:26.965Z,98611.00
2024-04-01T23:33:59.260Z,98616.00
2024-04-01T23:36:31.659Z,98621.60
2024-04-01T23:39:04.076Z,98619.20
2024-04-01T23:41:36.430Z,98622.40
2024-04-01T23:44:08.946Z,98629.60
2024-04-01T23:46:41.339Z,98633.00
2024-04-01T23:49:13.638Z,98631.00
2024-04-01T23:51:45.982Z,98632.60
2024-04-01T23:54:18.350Z,98638.80
2024-04-01T23:56:50.716Z,98642.20
2024-04-01T23:59:23.141Z,98646.60
